メインページ
METAR-TAF:

METAR-TAF

空港 :

エルサルバドル国際空港

エルサルバドル, エルサルバドル

緯度: 13-26N, 経度: 089-03W, 海抜: 25m

現時点の気象観測

当レポートは58分前の11:50(UTC)に作成
変向風 1kt
気温 23°C
湿度 94%
気圧 1010 hPa
視程10km以上
高度2000ftの雲はほとんどない
高度6300ftの雲は散在している
高度7900ftの千切れ雲あり

METAR: MSLP 261150Z VRB01KT 9999 FEW020 SCT063 BKN079 23/22 Q1010 A2983 NOSIG

時間: 06:48 (12:48 UTC)

予報

予報は26日の 12時(UTC)から 27日の 12時(UTC)まで有効
北東の風 5kt
視程10km以上
高度7500ftの雲は散在している
26日の 1800時(UTC)から
南/南西の風 8kt
視程10km以上
高度2700ftの雲はほとんどない
高度3700ftの雲はほとんどない, 積乱雲.
27日の 0000時(UTC)から
変向風 3kt
視程10km以上
高度2700ftの雲は散在している
高度3700ftの雲はほとんどない, 積乱雲.
高度5000ftの千切れ雲あり
27日の 03時(UTC)から 27日の 06時(UTC)まで一時的に
の風 7kt
視程: 6000m
高度2300ftの千切れ雲あり
高度3300ftの雲は散在している, 積乱雲.
激しい雷雨, 雨
27日の 0600時(UTC)から
北/北東の風 4kt
視程10km以上
高度6000ftの千切れ雲あり

TAF: MSLP 2612/2712 04005KT 9999 SCT075 TX33/2618Z TN22/2612Z FM261800 20008KT 9999 FEW027 FEW037CB FM270000 VRB03KT 9999 SCT027 FEW037CB BKN050 TEMPO 2703/2706 08007KT 6000 TSRA BKN023 SCT033CB FM270600 02004KT 9999 BKN060

4,000以上の空港の気象観測と天気予報(METAR報とTAF報)

利用可能な観測所は地図上に黄色い丸と赤い丸で示す。

丸の上にカーソルを重ねると観測所名を参照できる。

次にクリックすると気象観測と天気予報を参照できる。

マップの切り替え:黒色「×」印の緑ボタンをクリックして拡大、「-」印の緑ボタンをクリックして縮小、緑色の三角印をクリックして隣りの地図に切り替え


METAR-TAF: